createdAt,value
2017-10-31T00:00:36.779Z,8.63
2017-10-31T00:03:04.370Z,7.13
2017-10-31T00:05:31.942Z,8.27
2017-10-31T00:07:59.445Z,8.23
2017-10-31T00:10:26.945Z,9.13
2017-10-31T00:12:54.430Z,9.77
2017-10-31T00:15:21.947Z,8.00
2017-10-31T00:17:50.203Z,8.77
2017-10-31T00:20:17.695Z,9.87
2017-10-31T00:22:45.967Z,8.63
2017-10-31T00:25:14.226Z,7.40
2017-10-31T00:27:41.788Z,9.10
2017-10-31T00:30:11.000Z,8.77
2017-10-31T00:32:39.246Z,9.33
2017-10-31T00:35:07.556Z,8.03
2017-10-31T00:37:35.057Z,7.50
2017-10-31T00:40:02.536Z,9.07
2017-10-31T00:42:30.012Z,10.57
2017-10-31T00:44:58.268Z,7.27
2017-10-31T00:47:25.738Z,9.90
2017-10-31T00:49:54.027Z,7.47
2017-10-31T00:52:22.288Z,7.30
2017-10-31T00:54:49.765Z,7.90
2017-10-31T00:57:18.011Z,9.00
2017-10-31T00:59:46.314Z,8.97
2017-10-31T01:02:14.587Z,8.70
2017-10-31T01:04:42.832Z,9.53
2017-10-31T01:07:10.420Z,6.17
2017-10-31T01:09:38.677Z,9.00
2017-10-31T01:12:06.982Z,8.73
2017-10-31T01:14:35.249Z,7.90
2017-10-31T01:17:03.533Z,8.40
2017-10-31T01:19:31.773Z,7.40
2017-10-31T01:22:00.036Z,8.63
2017-10-31T01:24:27.596Z,8.13
2017-10-31T01:26:55.085Z,6.80
2017-10-31T01:29:22.623Z,7.13
2017-10-31T01:31:51.609Z,5.20
2017-10-31T01:34:19.087Z,6.63
2017-10-31T01:36:46.576Z,8.97
2017-10-31T01:39:14.062Z,7.13
2017-10-31T01:41:41.585Z,8.90
2017-10-31T01:44:09.862Z,6.63
2017-10-31T01:46:38.133Z,8.40
2017-10-31T01:49:06.371Z,8.23
2017-10-31T01:51:33.880Z,7.07
2017-10-31T01:54:01.364Z,9.17
2017-10-31T01:56:29.835Z,7.50
2017-10-31T01:58:57.329Z,7.63
2017-10-31T02:01:24.807Z,8.67
2017-10-31T02:03:53.094Z,11.40
2017-10-31T02:06:21.482Z,8.13
2017-10-31T02:08:49.730Z,6.90
2017-10-31T02:11:17.305Z,9.07
2017-10-31T02:13:45.584Z,6.00
2017-10-31T02:16:13.829Z,5.80
2017-10-31T02:18:41.301Z,8.17
2017-10-31T02:21:08.799Z,6.30
2017-10-31T02:23:36.274Z,9.13
2017-10-31T02:26:03.801Z,8.27
2017-10-31T02:28:31.290Z,7.33
2017-10-31T02:30:58.770Z,7.70
2017-10-31T02:33:26.252Z,11.73
2017-10-31T02:35:53.753Z,7.47
2017-10-31T02:38:21.282Z,9.63
2017-10-31T02:40:49.524Z,8.80
2017-10-31T02:43:17.113Z,7.10
2017-10-31T02:45:45.386Z,9.70
2017-10-31T02:48:13.619Z,9.10
2017-10-31T02:50:41.111Z,8.80
2017-10-31T02:53:08.583Z,5.23
2017-10-31T02:55:36.853Z,8.57
2017-10-31T02:58:05.111Z,5.80
2017-10-31T03:00:32.585Z,9.47
2017-10-31T03:03:00.867Z,7.87
2017-10-31T03:05:29.143Z,7.60
2017-10-31T03:07:57.380Z,8.83
2017-10-31T03:10:24.865Z,7.90
2017-10-31T03:12:52.428Z,8.00
2017-10-31T03:15:20.684Z,5.23
2017-10-31T03:17:48.168Z,5.53
2017-10-31T03:20:16.446Z,4.60
2017-10-31T03:22:44.687Z,10.00
2017-10-31T03:25:12.172Z,8.93
2017-10-31T03:27:40.442Z,7.60
2017-10-31T03:30:08.702Z,7.97
2017-10-31T03:32:37.681Z,8.33
2017-10-31T03:35:05.175Z,7.43
2017-10-31T03:37:33.413Z,7.40
2017-10-31T03:40:00.892Z,8.77
2017-10-31T03:42:28.392Z,8.70
2017-10-31T03:44:55.867Z,8.23
2017-10-31T03:47:23.344Z,6.53
2017-10-31T03:49:50.850Z,6.97
2017-10-31T03:52:18.457Z,7.93
2017-10-31T03:54:45.934Z,7.67
2017-10-31T03:57:13.441Z,7.40
2017-10-31T03:59:41.010Z,9.03
2017-10-31T04:02:08.494Z,5.77
2017-10-31T04:04:36.095Z,8.00
2017-10-31T04:07:04.366Z,7.10
2017-10-31T04:09:32.648Z,7.43
2017-10-31T04:12:00.955Z,6.63
2017-10-31T04:14:28.474Z,6.47
2017-10-31T04:16:56.756Z,6.10
2017-10-31T04:19:25.019Z,6.90
2017-10-31T04:21:52.498Z,8.20
2017-10-31T04:24:20.739Z,8.23
2017-10-31T04:26:48.323Z,5.47
2017-10-31T04:29:16.566Z,7.63
2017-10-31T04:31:44.039Z,9.27
2017-10-31T04:34:11.619Z,5.10
2017-10-31T04:36:39.862Z,10.03
2017-10-31T04:39:07.345Z,7.30
2017-10-31T04:41:34.904Z,6.93
2017-10-31T04:44:03.145Z,7.77
2017-10-31T04:46:31.103Z,8.73
2017-10-31T04:48:58.608Z,7.47
2017-10-31T04:51:27.287Z,9.83
2017-10-31T04:53:54.858Z,8.23
2017-10-31T04:56:23.121Z,7.80
2017-10-31T04:58:50.696Z,7.27
2017-10-31T05:01:18.983Z,9.20
2017-10-31T05:03:46.487Z,8.20
2017-10-31T05:06:13.967Z,5.57
2017-10-31T05:08:41.437Z,7.10
2017-10-31T05:11:09.698Z,5.50
2017-10-31T05:13:38.673Z,6.03
2017-10-31T05:16:06.171Z,7.83
2017-10-31T05:18:33.723Z,8.73
2017-10-31T05:21:01.995Z,6.40
2017-10-31T05:23:29.560Z,6.63
2017-10-31T05:25:57.841Z,7.50
2017-10-31T05:28:26.085Z,7.43
2017-10-31T05:30:53.575Z,7.30
2017-10-31T05:33:21.852Z,7.63
2017-10-31T05:35:50.093Z,8.63
2017-10-31T05:38:17.585Z,7.80
2017-10-31T05:40:45.852Z,5.80
2017-10-31T05:43:14.242Z,6.50
2017-10-31T05:45:42.475Z,9.03
2017-10-31T05:48:09.970Z,7.97
2017-10-31T05:50:38.218Z,8.07
2017-10-31T05:53:05.692Z,7.43
2017-10-31T05:55:33.977Z,7.20
2017-10-31T05:58:02.248Z,6.00
2017-10-31T06:00:30.525Z,7.63
2017-10-31T06:02:58.788Z,11.13
2017-10-31T06:05:26.256Z,6.13
2017-10-31T06:07:54.531Z,6.37
2017-10-31T06:10:22.817Z,8.47
2017-10-31T06:12:51.055Z,7.70
2017-10-31T06:15:18.545Z,8.03
2017-10-31T06:17:46.812Z,7.03
2017-10-31T06:20:14.290Z,8.43
2017-10-31T06:22:48.204Z,6.97
2017-10-31T06:25:21.356Z,6.00
2017-10-31T06:27:55.203Z,7.20
2017-10-31T06:30:28.465Z,6.47
2017-10-31T06:32:55.955Z,6.67
2017-10-31T06:35:23.496Z,7.00
2017-10-31T06:37:51.771Z,8.00
2017-10-31T06:40:20.041Z,8.63
2017-10-31T06:42:48.288Z,9.53
2017-10-31T06:45:15.776Z,9.03
2017-10-31T06:47:44.040Z,7.70
2017-10-31T06:50:11.616Z,8.67
2017-10-31T06:52:39.860Z,8.17
2017-10-31T06:55:07.352Z,9.93
2017-10-31T06:57:35.598Z,8.43
2017-10-31T07:00:03.076Z,9.13
2017-10-31T07:02:30.640Z,8.07
2017-10-31T07:04:58.918Z,11.83
2017-10-31T07:07:27.197Z,9.60
2017-10-31T07:09:55.476Z,9.80
2017-10-31T07:12:23.747Z,9.60
2017-10-31T07:14:52.007Z,9.67
2017-10-31T07:17:20.285Z,9.53
2017-10-31T07:19:47.869Z,10.27
2017-10-31T07:22:15.350Z,10.63
2017-10-31T07:24:42.881Z,12.23
2017-10-31T07:27:10.370Z,13.43
2017-10-31T07:29:38.101Z,10.93
2017-10-31T07:32:06.408Z,10.00
2017-10-31T07:34:33.940Z,12.23
2017-10-31T07:37:01.440Z,12.50
2017-10-31T07:39:28.945Z,10.83
2017-10-31T07:41:57.202Z,10.17
2017-10-31T07:44:24.905Z,11.30
2017-10-31T07:46:52.416Z,11.10
2017-10-31T07:49:20.016Z,11.67
2017-10-31T07:51:47.569Z,11.77
2017-10-31T07:54:15.844Z,11.67
2017-10-31T07:56:44.094Z,11.37
2017-10-31T07:59:14.450Z,11.27
2017-10-31T08:01:42.732Z,12.97
2017-10-31T08:04:10.218Z,11.13
2017-10-31T08:06:37.695Z,12.33
2017-10-31T08:09:05.185Z,11.27
2017-10-31T08:11:33.475Z,12.60
2017-10-31T08:16:35.880Z,16.20
2017-10-31T08:19:03.360Z,13.57
2017-10-31T08:21:30.848Z,13.90
2017-10-31T08:23:58.319Z,12.70
2017-10-31T08:26:25.809Z,14.33
2017-10-31T08:28:54.011Z,13.17
2017-10-31T08:31:21.574Z,13.23
2017-10-31T08:33:49.064Z,13.50
2017-10-31T08:36:17.356Z,12.00
2017-10-31T08:38:44.853Z,10.33
2017-10-31T08:41:12.359Z,11.60
2017-10-31T08:43:40.632Z,15.63
2017-10-31T08:46:08.118Z,12.03
2017-10-31T08:48:37.411Z,12.10
2017-10-31T08:51:05.667Z,11.97
2017-10-31T08:53:33.152Z,11.53
2017-10-31T08:56:00.798Z,13.57
2017-10-31T08:58:28.292Z,12.17
2017-10-31T09:00:55.812Z,13.30
2017-10-31T09:03:24.055Z,12.73
2017-10-31T09:05:51.640Z,9.87
2017-10-31T09:08:19.892Z,12.20
2017-10-31T09:10:47.392Z,11.30
2017-10-31T09:13:14.871Z,11.50
2017-10-31T09:15:42.407Z,10.73
2017-10-31T09:18:10.650Z,10.97
2017-10-31T09:20:38.136Z,12.87
2017-10-31T09:23:06.425Z,10.33
2017-10-31T09:25:33.927Z,11.17
2017-10-31T09:28:01.416Z,11.90
2017-10-31T09:30:29.663Z,9.80
2017-10-31T09:32:57.158Z,11.03
2017-10-31T09:35:25.416Z,11.10
2017-10-31T09:37:52.903Z,10.97
2017-10-31T09:40:20.382Z,10.47
2017-10-31T09:42:47.896Z,10.50
2017-10-31T09:45:16.148Z,10.27
2017-10-31T09:47:43.624Z,13.60
2017-10-31T09:50:11.899Z,14.67
2017-10-31T09:52:50.320Z,13.80
2017-10-31T09:55:18.604Z,10.97
2017-10-31T09:57:46.848Z,11.67
2017-10-31T10:00:14.344Z,10.97
2017-10-31T10:02:44.137Z,9.40
2017-10-31T10:05:28.864Z,10.23
2017-10-31T10:08:01.462Z,10.97
2017-10-31T10:10:38.030Z,10.33
2017-10-31T10:22:16.592Z,9.37
2017-10-31T10:27:47.174Z,11.70
2017-10-31T10:30:15.851Z,10.20
2017-10-31T10:32:43.359Z,11.30
2017-10-31T10:35:10.845Z,10.10
2017-10-31T10:37:38.382Z,10.10
2017-10-31T10:40:05.875Z,10.37
2017-10-31T10:42:33.393Z,9.80
2017-10-31T10:45:00.887Z,8.90
2017-10-31T10:47:29.143Z,13.07
2017-10-31T10:49:56.698Z,10.27
2017-10-31T10:52:24.189Z,12.90
2017-10-31T10:54:51.679Z,9.23
2017-10-31T10:57:19.953Z,10.10
2017-10-31T10:59:48.240Z,10.97
2017-10-31T11:02:15.723Z,8.93
2017-10-31T11:04:43.208Z,12.13
2017-10-31T11:07:10.788Z,9.83
2017-10-31T11:09:38.272Z,9.80
2017-10-31T11:12:05.758Z,8.60
2017-10-31T11:14:33.235Z,8.57
2017-10-31T11:17:00.944Z,9.13
2017-10-31T11:19:44.633Z,8.30
2017-10-31T17:20:31.478Z,10.33
2017-10-31T17:23:00.512Z,12.90
2017-10-31T17:25:27.995Z,11.17
2017-10-31T17:27:56.372Z,10.40
2017-10-31T17:30:24.690Z,10.97
2017-10-31T17:32:52.175Z,11.33
2017-10-31T17:35:19.661Z,9.43
2017-10-31T17:37:47.964Z,8.93
2017-10-31T17:40:15.538Z,9.57
2017-10-31T17:42:43.468Z,10.23
2017-10-31T17:45:11.764Z,9.00
2017-10-31T17:47:39.244Z,9.03
2017-10-31T17:50:06.784Z,9.30
2017-10-31T17:52:34.453Z,7.43
2017-10-31T17:55:01.927Z,7.70
2017-10-31T17:57:29.412Z,7.40
2017-10-31T17:59:56.926Z,8.03
2017-10-31T18:02:24.421Z,8.97
2017-10-31T18:04:51.943Z,6.30
2017-10-31T18:07:19.425Z,5.97
2017-10-31T18:09:46.976Z,7.23
2017-10-31T18:12:14.489Z,6.00
2017-10-31T18:14:42.727Z,6.20
2017-10-31T18:17:10.320Z,5.80
2017-10-31T18:19:38.564Z,8.00
2017-10-31T18:22:06.058Z,7.17
2017-10-31T18:24:33.572Z,5.53
2017-10-31T18:27:01.081Z,5.57
2017-10-31T18:29:28.588Z,8.37
2017-10-31T18:31:56.092Z,7.97
2017-10-31T18:34:24.332Z,7.93
2017-10-31T18:36:51.827Z,6.30
2017-10-31T18:39:20.067Z,5.27
2017-10-31T18:41:47.567Z,5.30
2017-10-31T18:44:15.127Z,6.10
2017-10-31T18:46:42.631Z,5.37
2017-10-31T18:49:10.103Z,4.47
2017-10-31T18:51:37.593Z,4.60
2017-10-31T18:54:05.841Z,4.90
2017-10-31T18:56:33.331Z,4.83
2017-10-31T18:59:00.813Z,4.83
2017-10-31T19:01:28.309Z,4.53
2017-10-31T19:03:55.802Z,4.80
2017-10-31T19:06:24.084Z,4.97
2017-10-31T19:08:51.560Z,5.33
2017-10-31T19:11:19.074Z,6.53
2017-10-31T19:13:47.321Z,4.33
2017-10-31T19:16:14.824Z,5.63
2017-10-31T19:18:42.312Z,11.50
2017-10-31T19:21:09.797Z,4.83
2017-10-31T19:23:37.300Z,4.07
2017-10-31T19:26:04.848Z,5.50
2017-10-31T19:28:33.111Z,4.00
2017-10-31T19:31:01.414Z,5.90
2017-10-31T19:33:28.899Z,4.43
2017-10-31T19:35:56.388Z,5.27
2017-10-31T19:38:24.121Z,5.40
2017-10-31T19:40:51.712Z,5.37
2017-10-31T19:43:19.536Z,5.70
2017-10-31T19:45:47.235Z,5.40
2017-10-31T19:48:34.310Z,3.87
2017-10-31T19:51:02.453Z,4.47
2017-10-31T19:53:30.104Z,5.40
2017-10-31T19:55:58.430Z,5.13
2017-10-31T19:58:26.192Z,5.07
2017-10-31T20:00:53.841Z,5.27
2017-10-31T20:03:21.407Z,5.87
2017-10-31T20:05:48.991Z,5.90
2017-10-31T20:08:16.615Z,5.10
2017-10-31T20:10:45.035Z,5.57
2017-10-31T20:13:12.548Z,8.07
2017-10-31T20:15:40.573Z,6.23
2017-10-31T20:18:08.292Z,6.57
2017-10-31T20:20:35.902Z,5.50
2017-10-31T20:23:03.451Z,5.97
2017-10-31T20:25:31.005Z,7.33
2017-10-31T20:27:58.506Z,5.77
2017-10-31T20:30:26.975Z,8.20
2017-10-31T20:32:54.575Z,6.73
2017-10-31T20:35:22.203Z,8.03
2017-10-31T20:37:49.831Z,6.60
2017-10-31T20:40:18.455Z,6.90
2017-10-31T20:42:45.962Z,6.90
2017-10-31T20:45:13.455Z,6.77
2017-10-31T20:47:41.056Z,6.60
2017-10-31T20:50:08.544Z,7.13
2017-10-31T20:52:36.048Z,7.23
2017-10-31T20:55:03.554Z,8.10
2017-10-31T20:57:31.583Z,7.07
2017-10-31T20:59:59.067Z,8.00
2017-10-31T21:02:26.621Z,7.33
2017-10-31T21:04:54.096Z,9.07
2017-10-31T21:07:21.584Z,8.43
2017-10-31T21:09:49.161Z,7.33
2017-10-31T21:12:20.091Z,9.10
2017-10-31T21:14:47.943Z,9.13
2017-10-31T21:17:15.424Z,7.80
2017-10-31T21:19:43.696Z,8.80
2017-10-31T21:22:11.960Z,7.57
2017-10-31T21:24:39.439Z,6.90
2017-10-31T21:27:07.701Z,7.93
2017-10-31T21:29:35.181Z,6.70
2017-10-31T21:32:02.679Z,8.37
2017-10-31T21:34:30.161Z,8.33
2017-10-31T21:36:57.634Z,9.27
2017-10-31T21:39:25.883Z,8.00
2017-10-31T21:41:53.364Z,7.13
2017-10-31T21:44:21.645Z,7.43
2017-10-31T21:46:49.922Z,6.87
2017-10-31T21:49:18.200Z,6.97
2017-10-31T21:51:46.476Z,6.87
2017-10-31T21:54:14.016Z,7.20
2017-10-31T21:56:41.591Z,9.50
2017-10-31T21:59:09.867Z,8.93
2017-10-31T22:01:38.122Z,7.67
2017-10-31T22:04:05.608Z,9.37
2017-10-31T22:06:33.846Z,9.93
2017-10-31T22:09:01.316Z,7.50
2017-10-31T22:11:28.830Z,7.40
2017-10-31T22:13:56.315Z,7.40
2017-10-31T22:16:23.825Z,8.60
2017-10-31T22:18:52.092Z,8.17
2017-10-31T22:21:21.524Z,9.37
2017-10-31T22:23:49.052Z,10.47
2017-10-31T22:26:17.312Z,8.77
2017-10-31T22:28:49.559Z,9.57
2017-10-31T22:31:17.097Z,8.00
2017-10-31T22:33:44.571Z,8.60
2017-10-31T22:36:12.066Z,10.07
2017-10-31T22:38:40.302Z,9.03
2017-10-31T22:41:07.814Z,9.37
2017-10-31T22:43:36.099Z,11.23
2017-10-31T22:46:03.591Z,8.47
2017-10-31T22:48:31.084Z,10.23
2017-10-31T22:50:58.738Z,9.13
2017-10-31T22:53:27.005Z,10.90
2017-10-31T22:55:54.486Z,8.73
2017-10-31T22:58:22.769Z,9.97
2017-10-31T23:00:52.916Z,9.57
2017-10-31T23:03:20.535Z,10.20
2017-10-31T23:05:48.834Z,9.80
2017-10-31T23:08:16.357Z,10.10
2017-10-31T23:10:44.627Z,9.70
2017-10-31T23:13:12.099Z,9.93
2017-10-31T23:15:40.394Z,8.93
2017-10-31T23:18:07.921Z,10.33
2017-10-31T23:20:35.408Z,9.27
2017-10-31T23:23:03.890Z,9.87
2017-10-31T23:25:32.152Z,8.63
2017-10-31T23:28:00.432Z,9.17
2017-10-31T23:30:28.095Z,9.27
2017-10-31T23:32:55.587Z,8.63
2017-10-31T23:35:23.076Z,8.90
2017-10-31T23:37:50.637Z,8.90
2017-10-31T23:40:18.223Z,9.80
2017-10-31T23:42:45.691Z,10.77
2017-10-31T23:45:13.952Z,12.53
2017-10-31T23:47:41.431Z,9.57
2017-10-31T23:50:09.700Z,11.13
2017-10-31T23:52:37.984Z,10.37
2017-10-31T23:55:06.269Z,10.57
2017-10-31T23:57:33.819Z,11.10
